createdAt,value
2019-01-05T00:00:42.158Z,74.33
2019-01-05T00:03:27.419Z,74.46
2019-01-05T00:06:01.934Z,75.34
2019-01-05T00:08:33.296Z,75.09
2019-01-05T00:11:21.261Z,74.99
2019-01-05T00:13:53.002Z,75.39
2019-01-05T00:16:32.175Z,76.08
2019-01-05T00:19:10.906Z,76.54
2019-01-05T00:22:10.013Z,74.48
2019-01-05T00:24:50.113Z,73.34
2019-01-05T00:27:38.960Z,73.36
2019-01-05T00:30:21.173Z,73.25
2019-01-05T00:33:08.816Z,71.16
2019-01-05T00:35:54.978Z,70.13
2019-01-05T00:38:36.383Z,72.68
2019-01-05T00:44:15.111Z,73.39
2019-01-05T00:46:50.045Z,75.88
2019-01-05T00:49:26.845Z,76.67
2019-01-05T00:52:04.020Z,78.08
2019-01-05T00:54:54.317Z,78.46
2019-01-05T00:57:29.180Z,79.52
2019-01-05T01:00:11.062Z,79.00
2019-01-05T01:03:05.661Z,79.04
2019-01-05T01:05:53.784Z,79.27
2019-01-05T01:08:28.812Z,76.74
2019-01-05T01:11:06.108Z,74.10
2019-01-05T01:13:40.460Z,73.59
2019-01-05T01:16:30.099Z,75.97
2019-01-05T01:19:17.951Z,77.13
2019-01-05T01:21:53.314Z,78.26
2019-01-05T01:24:43.074Z,78.25
2019-01-05T01:27:24.844Z,78.94
2019-01-05T01:30:15.073Z,77.91
2019-01-05T01:33:02.687Z,77.04
2019-01-05T01:35:52.862Z,77.22
2019-01-05T01:38:30.533Z,76.71
2019-01-05T01:41:14.012Z,76.48
2019-01-05T01:43:45.977Z,77.00
2019-01-05T01:46:21.321Z,76.94
2019-01-05T01:49:09.673Z,76.99
2019-01-05T01:51:46.339Z,75.00
2019-01-05T01:54:29.204Z,72.65
2019-01-05T01:57:22.070Z,73.27
2019-01-05T01:59:56.746Z,72.84
2019-01-05T02:02:28.394Z,72.24
2019-01-05T02:05:12.961Z,72.65
2019-01-05T02:07:59.256Z,71.65
2019-01-05T02:10:52.163Z,73.16
2019-01-05T02:13:41.888Z,75.49
2019-01-05T02:16:34.566Z,76.94
2019-01-05T02:19:14.848Z,78.17
2019-01-05T02:22:03.975Z,80.22
2019-01-05T02:25:10.538Z,82.64
2019-01-05T02:27:57.340Z,85.04
2019-01-05T02:30:55.638Z,84.28
2019-01-05T02:33:41.947Z,84.93
2019-01-05T02:36:47.235Z,83.93
2019-01-05T02:39:58.381Z,80.24
2019-01-05T02:43:18.868Z,78.54
2019-01-05T02:46:28.096Z,76.90
2019-01-05T02:49:29.790Z,73.19
2019-01-05T02:52:22.516Z,72.76
2019-01-05T02:55:14.950Z,78.72
2019-01-05T02:58:04.135Z,69.93
2019-01-05T03:00:56.553Z,72.95
2019-01-05T03:04:10.283Z,68.67
2019-01-05T03:07:13.339Z,64.86
2019-01-05T03:10:05.455Z,62.56
2019-01-05T03:12:58.634Z,61.78
2019-01-05T03:16:01.185Z,63.04
2019-01-05T03:18:54.776Z,61.88
2019-01-05T03:21:55.553Z,62.32
2019-01-05T03:24:54.391Z,63.88
2019-01-05T03:28:00.590Z,59.26
2019-01-05T03:31:20.455Z,60.53
2019-01-05T03:34:27.306Z,65.22
2019-01-05T03:37:32.018Z,68.69
2019-01-05T03:40:29.205Z,68.17
2019-01-05T03:43:24.516Z,67.01
2019-01-05T03:46:32.880Z,70.62
2019-01-05T03:49:55.690Z,73.90
2019-01-05T03:52:49.257Z,77.75
2019-01-05T03:55:38.527Z,80.11
2019-01-05T03:58:52.484Z,81.47
2019-01-05T04:01:32.301Z,82.79
2019-01-05T04:04:12.683Z,84.21
2019-01-05T04:07:10.562Z,85.62
2019-01-05T04:09:52.100Z,86.15
2019-01-05T04:13:01.393Z,86.22
2019-01-05T04:15:50.877Z,85.79
2019-01-05T04:19:12.402Z,84.50
2019-01-05T04:22:18.149Z,82.78
2019-01-05T04:25:30.632Z,79.33
2019-01-05T04:28:31.604Z,77.32
2019-01-05T04:31:37.731Z,78.11
2019-01-05T04:34:21.936Z,76.54
2019-01-05T04:37:15.912Z,74.73
2019-01-05T04:40:12.858Z,74.65
2019-01-05T04:43:08.352Z,73.91
2019-01-05T04:46:03.793Z,74.35
2019-01-05T04:48:56.225Z,74.54
2019-01-05T04:51:45.887Z,74.57
2019-01-05T04:54:52.690Z,74.62
2019-01-05T04:58:09.083Z,74.12
2019-01-05T05:00:48.925Z,72.30
2019-01-05T05:03:39.517Z,69.69
2019-01-05T05:06:40.435Z,65.92
2019-01-05T05:09:37.179Z,65.99
2019-01-05T05:12:26.942Z,65.75
2019-01-05T05:15:37.588Z,66.59
2019-01-05T05:18:26.322Z,66.62
2019-01-05T05:21:15.304Z,63.03
2019-01-05T05:24:12.719Z,63.92
2019-01-05T05:27:13.872Z,64.42
2019-01-05T05:30:08.372Z,62.38
2019-01-05T05:32:51.388Z,64.38
2019-01-05T05:36:03.491Z,65.91
2019-01-05T05:39:08.189Z,67.44
2019-01-05T05:41:45.743Z,67.12
2019-01-05T05:44:26.696Z,65.15
2019-01-05T05:47:15.920Z,66.59
2019-01-05T05:50:25.131Z,66.64
2019-01-05T05:53:07.985Z,67.18
2019-01-05T05:55:57.414Z,73.84
2019-01-05T05:58:34.306Z,72.72
2019-01-05T06:01:47.500Z,69.91
2019-01-05T06:05:10.247Z,69.79
2019-01-05T06:08:01.140Z,67.73
2019-01-05T06:10:44.417Z,69.05
2019-01-05T06:14:04.303Z,69.69
2019-01-05T06:16:55.012Z,70.46
2019-01-05T06:19:39.462Z,69.47
2019-01-05T06:22:45.110Z,68.36
2019-01-05T06:25:50.167Z,66.60
2019-01-05T06:29:08.291Z,66.19
2019-01-05T06:32:28.729Z,66.39
2019-01-05T06:35:06.608Z,66.76
2019-01-05T06:37:59.051Z,67.20
2019-01-05T06:40:53.031Z,67.35
2019-01-05T06:43:42.299Z,68.20
2019-01-05T06:46:50.681Z,68.60
2019-01-05T06:50:00.951Z,68.44
2019-01-05T06:53:08.804Z,68.42
2019-01-05T06:55:54.680Z,71.03
2019-01-05T06:58:38.101Z,71.97
2019-01-05T07:01:47.643Z,72.47
2019-01-05T07:04:21.927Z,73.16
2019-01-05T07:07:36.432Z,75.04
2019-01-05T07:10:58.889Z,75.82
2019-01-05T07:13:58.810Z,75.28
2019-01-05T07:17:08.576Z,75.25
2019-01-05T07:20:15.013Z,71.80
2019-01-05T07:23:21.272Z,74.06
2019-01-05T07:26:32.074Z,73.64
2019-01-05T07:29:42.902Z,72.22
2019-01-05T07:32:49.019Z,70.37
2019-01-05T07:35:51.773Z,65.28
2019-01-05T07:38:47.595Z,61.32
2019-01-05T07:41:31.442Z,59.67
2019-01-05T07:44:34.158Z,59.67
2019-01-05T07:47:44.868Z,61.58
2019-01-05T07:51:09.109Z,58.53
2019-01-05T07:54:04.363Z,58.53
2019-01-05T07:57:09.982Z,57.59
2019-01-05T08:00:04.658Z,56.16
2019-01-05T08:03:11.751Z,53.90
2019-01-05T08:06:32.505Z,54.46
2019-01-05T08:09:24.685Z,54.42
2019-01-05T08:12:06.410Z,52.39
2019-01-05T08:14:46.859Z,52.39
2019-01-05T08:17:42.335Z,49.79
2019-01-05T08:20:43.706Z,51.58
2019-01-05T08:23:43.114Z,53.10
2019-01-05T08:26:33.875Z,48.68
2019-01-05T08:29:08.956Z,48.80
2019-01-05T08:32:25.489Z,46.82
2019-01-05T08:35:14.167Z,45.33
2019-01-05T08:38:40.565Z,44.41
2019-01-05T08:41:54.809Z,44.62
2019-01-05T08:45:06.258Z,42.49
2019-01-05T08:48:13.408Z,46.17
2019-01-05T08:51:25.509Z,47.30
2019-01-05T08:54:25.426Z,46.55
2019-01-05T08:57:21.347Z,47.19
2019-01-05T09:00:29.095Z,48.88
2019-01-05T09:03:21.880Z,43.45
2019-01-05T09:06:34.576Z,43.74
2019-01-05T09:09:51.613Z,46.02
2019-01-05T09:12:46.851Z,48.85
2019-01-05T09:15:36.428Z,44.93
2019-01-05T09:18:44.283Z,47.37
2019-01-05T09:21:54.199Z,48.07
2019-01-05T09:24:58.727Z,48.01
2019-01-05T09:27:42.215Z,46.97
2019-01-05T09:30:46.668Z,47.21
2019-01-05T09:33:40.048Z,48.24
2019-01-05T09:36:55.762Z,45.48
2019-01-05T09:42:50.357Z,44.12
2019-01-05T09:46:00.784Z,45.24
2019-01-05T09:49:00.571Z,45.50
2019-01-05T09:52:17.583Z,43.55
2019-01-05T09:55:43.859Z,46.53
2019-01-05T09:58:33.156Z,50.65
2019-01-05T10:01:47.494Z,52.64
2019-01-05T10:04:45.904Z,50.61
2019-01-05T10:07:46.038Z,47.77
2019-01-05T10:10:56.710Z,41.52
2019-01-05T10:13:58.377Z,43.91
2019-01-05T10:17:07.658Z,41.38
2019-01-05T10:20:09.418Z,42.17
2019-01-05T10:23:18.614Z,39.88
2019-01-05T10:26:34.182Z,42.45
2019-01-05T10:29:17.594Z,44.45
2019-01-05T10:32:01.797Z,44.24
2019-01-05T10:34:57.399Z,43.79
2019-01-05T10:37:51.033Z,43.29
2019-01-05T10:40:43.611Z,42.99
2019-01-05T10:43:59.653Z,42.51
2019-01-05T10:47:13.625Z,40.77
2019-01-05T10:50:31.082Z,38.02
2019-01-05T10:53:23.373Z,37.99
2019-01-05T10:56:39.635Z,38.62
2019-01-05T10:59:42.614Z,39.34
2019-01-05T11:02:28.918Z,39.61
2019-01-05T11:05:33.509Z,40.17
2019-01-05T11:08:54.971Z,42.11
2019-01-05T11:12:04.801Z,41.88
2019-01-05T11:14:59.114Z,43.51
2019-01-05T11:18:03.663Z,44.71
2019-01-05T11:20:48.007Z,45.14
2019-01-05T11:23:33.656Z,45.38
2019-01-05T11:26:28.789Z,45.51
2019-01-05T11:29:29.943Z,45.94
2019-01-05T11:32:45.444Z,48.96
2019-01-05T11:36:05.497Z,47.57
2019-01-05T11:39:16.493Z,46.88
2019-01-05T11:42:05.296Z,46.62
2019-01-05T11:45:29.363Z,47.08
2019-01-05T11:48:33.868Z,46.66
2019-01-05T11:51:35.494Z,49.27
2019-01-05T11:54:49.064Z,48.49
2019-01-05T11:57:39.975Z,44.26
2019-01-05T12:00:42.434Z,44.39
2019-01-05T12:03:31.126Z,44.70
2019-01-05T12:06:18.770Z,44.62
2019-01-05T12:09:09.848Z,43.93
2019-01-05T12:12:32.372Z,44.66
2019-01-05T12:15:22.475Z,44.66
2019-01-05T12:18:11.869Z,46.49
2019-01-05T12:21:19.369Z,45.05
2019-01-05T12:24:40.361Z,45.00
2019-01-05T12:27:32.657Z,45.39
2019-01-05T12:30:22.997Z,46.92
2019-01-05T12:33:16.486Z,45.50
2019-01-05T12:36:23.484Z,47.18
2019-01-05T12:39:29.520Z,45.46
2019-01-05T12:42:25.953Z,45.99
2019-01-05T12:45:41.336Z,45.68
2019-01-05T12:48:46.179Z,46.58
2019-01-05T12:51:53.484Z,46.23
2019-01-05T12:54:52.671Z,45.85
2019-01-05T12:58:04.870Z,45.87
2019-01-05T13:01:02.057Z,45.44
2019-01-05T13:04:03.492Z,45.73
2019-01-05T13:07:09.652Z,45.68
2019-01-05T13:10:17.329Z,46.04
2019-01-05T13:13:42.361Z,46.63
2019-01-05T13:16:16.878Z,47.58
2019-01-05T13:19:14.306Z,47.30
2019-01-05T13:22:11.104Z,46.71
2019-01-05T13:28:31.651Z,47.00
2019-01-05T13:31:33.224Z,46.77
2019-01-05T13:34:42.409Z,47.31
2019-01-05T13:37:25.507Z,46.82
2019-01-05T13:40:17.086Z,47.68
2019-01-05T13:43:26.297Z,47.68
2019-01-05T13:46:03.334Z,47.13
2019-01-05T13:49:03.300Z,46.81
2019-01-05T13:51:57.180Z,47.53
2019-01-05T13:54:44.917Z,46.85
2019-01-05T13:57:23.176Z,47.62
2019-01-05T14:00:10.043Z,47.88
2019-01-05T14:03:38.579Z,48.21
2019-01-05T14:06:28.808Z,46.99
2019-01-05T14:09:16.963Z,46.99
2019-01-05T14:11:52.313Z,47.41
2019-01-05T14:14:27.247Z,47.61
2019-01-05T14:17:16.582Z,48.49
2019-01-05T14:20:11.810Z,48.49
2019-01-05T14:22:55.735Z,48.35
2019-01-05T14:25:37.640Z,48.55
2019-01-05T14:28:30.346Z,48.89
2019-01-05T14:31:18.067Z,48.77
2019-01-05T14:34:07.918Z,48.31
2019-01-05T14:37:04.807Z,49.46
2019-01-05T14:39:37.021Z,49.12
2019-01-05T14:42:28.319Z,48.84
2019-01-05T14:45:00.627Z,49.79
2019-01-05T14:47:50.437Z,49.81
2019-01-05T14:50:29.054Z,50.19
2019-01-05T14:53:11.530Z,50.97
2019-01-05T14:56:02.679Z,51.69
2019-01-05T14:58:54.272Z,51.66
2019-01-05T15:01:28.468Z,51.85
2019-01-05T15:07:16.231Z,51.21
2019-01-05T15:09:51.675Z,51.16
2019-01-05T15:12:27.927Z,51.40
2019-01-05T15:14:59.390Z,51.60
2019-01-05T15:17:51.019Z,51.76
2019-01-05T15:20:39.365Z,52.32
2019-01-05T15:23:10.788Z,51.80
2019-01-05T15:25:58.861Z,51.62
2019-01-05T15:28:33.276Z,51.62
2019-01-05T15:31:22.642Z,52.40
2019-01-05T15:34:15.400Z,52.40
2019-01-05T15:37:08.001Z,52.58
2019-01-05T15:39:48.001Z,52.27
2019-01-05T15:42:26.679Z,52.40
2019-01-05T15:45:01.568Z,52.40
2019-01-05T15:47:54.708Z,53.06
2019-01-05T15:50:42.894Z,53.06
2019-01-05T15:53:21.394Z,52.57
2019-01-05T15:56:02.988Z,52.57
2019-01-05T15:58:43.611Z,52.93
2019-01-05T16:01:14.987Z,52.35
2019-01-05T16:03:54.166Z,52.35
2019-01-05T16:06:29.351Z,52.73
2019-01-05T16:09:16.910Z,51.79
2019-01-05T16:12:10.349Z,52.08
2019-01-05T16:14:50.088Z,53.12
2019-01-05T16:17:30.808Z,53.77
2019-01-05T16:20:02.432Z,54.69
2019-01-05T16:22:40.034Z,54.73
2019-01-05T16:25:15.962Z,54.57
2019-01-05T16:27:47.297Z,54.98
2019-01-05T16:30:28.444Z,54.68
2019-01-05T16:33:05.651Z,54.40
2019-01-05T16:35:48.923Z,54.08
2019-01-05T16:38:36.457Z,54.23
2019-01-05T16:41:19.899Z,54.37
2019-01-05T16:43:53.972Z,53.09
2019-01-05T16:46:25.362Z,53.80
2019-01-05T16:49:06.379Z,54.47
2019-01-05T16:51:49.982Z,54.20
2019-01-05T16:54:26.132Z,54.17
2019-01-05T16:57:04.674Z,55.89
2019-01-05T16:59:46.607Z,55.89
2019-01-05T17:02:18.130Z,55.02
2019-01-05T17:05:01.514Z,54.75
2019-01-05T17:07:33.060Z,54.75
2019-01-05T17:10:04.518Z,55.11
2019-01-05T17:12:35.967Z,55.36
2019-01-05T17:15:17.455Z,55.94
2019-01-05T17:17:54.936Z,55.03
2019-01-05T17:20:32.379Z,55.61
2019-01-05T17:23:18.580Z,55.61
2019-01-05T17:29:37.402Z,55.96
2019-01-05T17:32:17.661Z,55.75
2019-01-05T17:35:05.481Z,56.29
2019-01-05T17:37:39.918Z,56.29
2019-01-05T17:40:27.457Z,56.76
2019-01-05T17:43:10.832Z,56.97
2019-01-05T17:45:48.375Z,56.26
2019-01-05T17:48:25.720Z,56.33
2019-01-05T17:51:00.748Z,56.52
2019-01-05T17:53:39.126Z,56.76
2019-01-05T17:56:20.840Z,57.75
2019-01-05T17:58:54.271Z,56.04
2019-01-05T18:01:41.306Z,56.48
2019-01-05T18:04:18.657Z,58.33
2019-01-05T18:07:09.849Z,58.33
2019-01-05T18:09:58.232Z,58.74
2019-01-05T18:12:33.522Z,58.45
2019-01-05T18:15:12.838Z,57.07
2019-01-05T18:17:47.203Z,57.67
2019-01-05T18:20:24.716Z,57.94
2019-01-05T18:22:58.877Z,58.23
2019-01-05T18:25:42.175Z,57.57
2019-01-05T18:28:19.608Z,57.49
2019-01-05T18:30:53.792Z,59.59
2019-01-05T18:33:41.581Z,59.21
2019-01-05T18:36:29.225Z,59.21
2019-01-05T18:39:09.666Z,61.11
2019-01-05T18:41:41.013Z,61.21
2019-01-05T18:44:15.375Z,60.24
2019-01-05T18:46:57.172Z,59.09
2019-01-05T18:49:45.662Z,59.17
2019-01-05T18:52:34.920Z,58.60
2019-01-05T18:55:06.317Z,59.38
2019-01-05T18:57:50.830Z,58.99
2019-01-05T19:00:38.885Z,58.64
2019-01-05T19:03:26.655Z,59.16
2019-01-05T19:06:00.807Z,59.37
2019-01-05T19:08:35.533Z,59.27
2019-01-05T19:11:07.049Z,59.27
2019-01-05T19:13:47.275Z,59.89
2019-01-05T19:16:30.677Z,59.84
2019-01-05T19:19:02.042Z,59.84
2019-01-05T19:21:36.500Z,60.06
2019-01-05T19:24:10.812Z,60.74
2019-01-05T19:26:50.506Z,60.74
2019-01-05T19:29:22.358Z,60.14
2019-01-05T19:32:13.497Z,60.53
2019-01-05T19:34:49.012Z,59.35
2019-01-05T19:37:26.229Z,59.21
2019-01-05T19:40:09.872Z,60.00
2019-01-05T19:43:03.629Z,60.72
2019-01-05T19:45:54.801Z,60.61
2019-01-05T19:48:30.005Z,60.40
2019-01-05T19:51:01.503Z,61.42
2019-01-05T19:53:34.093Z,61.94
2019-01-05T19:56:21.601Z,61.96
2019-01-05T19:58:58.822Z,61.34
2019-01-05T20:01:33.239Z,63.13
2019-01-05T20:04:07.896Z,63.98
2019-01-05T20:06:53.179Z,64.23
2019-01-05T20:09:41.448Z,64.20
2019-01-05T20:12:23.795Z,64.33
2019-01-05T20:15:12.692Z,63.87
2019-01-05T20:17:47.452Z,63.56
2019-01-05T20:20:18.826Z,63.85
2019-01-05T20:22:55.875Z,62.96
2019-01-05T20:25:36.119Z,63.35
2019-01-05T20:28:16.635Z,62.37
2019-01-05T20:31:03.479Z,62.03
2019-01-05T20:33:35.022Z,61.39
2019-01-05T20:36:24.493Z,61.99
2019-01-05T20:39:12.656Z,62.06
2019-01-05T20:42:00.785Z,62.53
2019-01-05T20:44:38.537Z,63.26
2019-01-05T20:47:30.522Z,62.54
2019-01-05T20:50:18.284Z,63.11
2019-01-05T20:53:01.858Z,64.66
2019-01-05T20:55:40.225Z,63.21
2019-01-05T20:58:26.429Z,62.22
2019-01-05T21:01:13.967Z,66.73
2019-01-05T21:04:10.417Z,67.84
2019-01-05T21:07:01.790Z,65.57
2019-01-05T21:09:33.961Z,65.57
2019-01-05T21:12:24.861Z,66.31
2019-01-05T21:14:56.267Z,66.68
2019-01-05T21:17:45.833Z,66.88
2019-01-05T21:20:17.325Z,68.20
2019-01-05T21:22:48.660Z,67.29
2019-01-05T21:25:36.012Z,67.95
2019-01-05T21:28:23.517Z,68.09
2019-01-05T21:31:00.999Z,69.50
2019-01-05T21:33:47.121Z,69.25
2019-01-05T21:36:25.241Z,68.48
2019-01-05T21:39:02.608Z,68.44
2019-01-05T21:41:46.814Z,69.07
2019-01-05T21:44:37.348Z,69.07
2019-01-05T21:47:31.307Z,68.40
2019-01-05T21:50:18.135Z,68.40
2019-01-05T21:53:05.506Z,69.65
2019-01-05T21:55:48.784Z,70.42
2019-01-05T21:58:35.053Z,70.20
2019-01-05T22:01:21.310Z,69.67
2019-01-05T22:03:52.762Z,69.67
2019-01-05T22:06:36.681Z,68.52
2019-01-05T22:09:09.528Z,68.38
2019-01-05T22:11:43.872Z,69.28
2019-01-05T22:14:15.236Z,69.68
2019-01-05T22:16:57.571Z,69.68
2019-01-05T22:19:33.719Z,67.07
2019-01-05T22:22:22.395Z,66.51
2019-01-05T22:25:01.231Z,66.51
2019-01-05T22:27:48.805Z,66.73
2019-01-05T22:30:36.154Z,67.08
2019-01-05T22:33:16.372Z,66.82
2019-01-05T22:36:05.769Z,66.82
2019-01-05T22:38:41.746Z,67.97
2019-01-05T22:41:30.251Z,67.97
2019-01-05T22:44:01.939Z,68.14
2019-01-05T22:46:33.408Z,68.91
2019-01-05T22:49:22.860Z,68.91
2019-01-05T22:54:52.262Z,72.16
2019-01-05T22:57:31.378Z,67.23
2019-01-05T23:00:03.184Z,66.53
2019-01-05T23:02:54.224Z,66.88
2019-01-05T23:05:32.730Z,66.79
2019-01-05T23:08:08.884Z,67.81
2019-01-05T23:10:56.195Z,68.47
2019-01-05T23:13:39.439Z,69.94
2019-01-05T23:16:12.307Z,67.34
2019-01-05T23:18:55.556Z,67.34
2019-01-05T23:21:41.408Z,69.02
2019-01-05T23:24:14.079Z,69.02
2019-01-05T23:27:05.876Z,69.97
2019-01-05T23:29:39.098Z,70.86
2019-01-05T23:32:10.488Z,71.50
2019-01-05T23:34:44.743Z,70.49
2019-01-05T23:37:21.846Z,71.24
2019-01-05T23:39:56.312Z,70.87
2019-01-05T23:42:33.464Z,71.67
2019-01-05T23:45:20.980Z,72.86
2019-01-05T23:47:52.369Z,74.55
2019-01-05T23:50:29.488Z,75.89
2019-01-05T23:53:17.153Z,75.79
2019-01-05T23:56:04.647Z,75.79
2019-01-05T23:58:36.021Z,76.25
